createdAt,value
2023-04-30T00:02:05.356Z,62.79
2023-04-30T00:07:08.575Z,62.44
2023-04-30T00:12:11.264Z,62.34
2023-04-30T00:17:13.783Z,61.57
2023-04-30T00:22:16.329Z,59.65
2023-04-30T00:27:18.860Z,65.49
2023-04-30T00:32:21.730Z,64.40
2023-04-30T00:37:24.551Z,63.30
2023-04-30T00:42:27.163Z,60.22
2023-04-30T00:47:32.011Z,62.43
2023-04-30T00:52:34.635Z,65.15
2023-04-30T00:57:38.304Z,62.75
2023-04-30T01:02:41.270Z,61.31
2023-04-30T01:07:46.270Z,60.17
2023-04-30T01:13:16.079Z,61.67
2023-04-30T01:18:29.579Z,62.87
2023-04-30T01:23:32.144Z,58.99
2023-04-30T01:28:36.720Z,63.34
2023-04-30T01:33:39.263Z,63.03
2023-04-30T01:39:00.748Z,60.90
2023-04-30T01:44:32.958Z,60.33
2023-04-30T01:49:57.260Z,59.39
2023-04-30T01:55:09.122Z,65.31
2023-04-30T02:00:12.104Z,62.84
2023-04-30T02:05:14.845Z,60.26
2023-04-30T02:10:22.177Z,59.53
2023-04-30T02:15:25.029Z,63.87
2023-04-30T02:20:27.537Z,62.09
2023-04-30T02:25:30.447Z,60.53
2023-04-30T02:30:33.007Z,59.83
2023-04-30T02:35:35.520Z,58.85
2023-04-30T02:40:38.077Z,64.96
2023-04-30T02:45:41.432Z,63.91
2023-04-30T02:50:44.029Z,61.72
2023-04-30T02:55:46.628Z,61.06
2023-04-30T03:00:49.170Z,60.29
2023-04-30T03:05:51.680Z,59.26
2023-04-30T03:10:54.255Z,61.96
2023-04-30T03:16:00.011Z,64.44
2023-04-30T03:21:02.807Z,62.16
2023-04-30T03:26:05.564Z,60.96
2023-04-30T03:31:08.192Z,60.01
2023-04-30T03:36:11.068Z,59.91
2023-04-30T03:41:13.623Z,65.85
2023-04-30T03:46:16.228Z,63.46
2023-04-30T03:51:22.616Z,60.99
2023-04-30T03:56:26.875Z,59.97
2023-04-30T04:01:30.042Z,59.12
2023-04-30T04:06:32.708Z,64.33
2023-04-30T04:11:35.457Z,63.68
2023-04-30T04:16:38.256Z,60.50
2023-04-30T04:21:41.033Z,59.66
2023-04-30T04:26:44.216Z,65.21
2023-04-30T04:31:49.225Z,62.56
2023-04-30T04:36:51.913Z,59.03
2023-04-30T04:41:54.526Z,62.83
2023-04-30T04:46:57.999Z,63.80
2023-04-30T04:52:01.969Z,60.03
2023-04-30T04:57:04.569Z,59.48
2023-04-30T05:02:07.198Z,63.94
2023-04-30T05:07:09.788Z,61.21
2023-04-30T05:12:13.086Z,58.54
2023-04-30T05:17:15.632Z,63.42
2023-04-30T05:22:18.242Z,61.66
2023-04-30T05:27:24.697Z,57.80
2023-04-30T05:32:27.959Z,62.73
2023-04-30T05:37:30.553Z,61.96
2023-04-30T05:42:33.089Z,58.61
2023-04-30T05:47:35.782Z,62.21
2023-04-30T05:52:38.669Z,64.11
2023-04-30T05:57:41.252Z,57.22
2023-04-30T06:02:43.827Z,60.79
2023-04-30T06:07:46.445Z,62.05
2023-04-30T06:12:49.036Z,57.56
2023-04-30T06:17:51.580Z,61.27
2023-04-30T06:22:54.225Z,62.53
2023-04-30T06:27:56.785Z,56.79
2023-04-30T06:32:59.408Z,61.73
2023-04-30T06:38:02.031Z,62.25
2023-04-30T06:43:04.621Z,57.61
2023-04-30T06:48:07.313Z,60.36
2023-04-30T06:53:10.879Z,62.91
2023-04-30T06:58:13.579Z,59.30
2023-04-30T07:03:16.270Z,58.07
2023-04-30T07:08:19.019Z,61.36
2023-04-30T07:13:21.719Z,62.55
2023-04-30T07:23:41.097Z,58.77
2023-04-30T07:28:43.779Z,59.63
2023-04-30T07:33:46.849Z,59.91
2023-04-30T07:38:49.452Z,59.91
2023-04-30T07:43:52.131Z,60.45
2023-04-30T07:48:54.734Z,60.03
2023-04-30T07:53:57.615Z,58.66
2023-04-30T07:59:00.407Z,58.15
2023-04-30T08:04:03.330Z,55.79
2023-04-30T08:09:05.960Z,54.43
2023-04-30T08:14:08.612Z,52.91
2023-04-30T08:19:11.235Z,52.63
2023-04-30T08:24:13.855Z,51.27
2023-04-30T08:29:16.433Z,48.07
2023-04-30T08:34:18.995Z,50.75
2023-04-30T08:39:21.624Z,50.44
2023-04-30T08:44:26.582Z,48.52
2023-04-30T08:49:32.884Z,49.43
2023-04-30T08:54:36.732Z,46.61
2023-04-30T08:59:39.495Z,48.42
2023-04-30T09:04:42.528Z,46.91
2023-04-30T09:09:45.077Z,47.18
2023-04-30T09:15:05.663Z,45.70
2023-04-30T09:20:12.058Z,47.27
2023-04-30T09:25:14.672Z,48.62
2023-04-30T09:30:31.919Z,45.52
2023-04-30T09:35:37.145Z,44.49
2023-04-30T09:40:41.973Z,43.14
2023-04-30T09:45:51.459Z,43.39
2023-04-30T09:50:54.174Z,44.58
2023-04-30T09:55:59.106Z,43.98
2023-04-30T10:01:04.283Z,42.71
2023-04-30T10:06:08.028Z,43.53
2023-04-30T10:11:16.692Z,40.39
2023-04-30T10:16:34.445Z,40.63
2023-04-30T10:21:40.753Z,40.61
2023-04-30T10:26:44.521Z,40.35
2023-04-30T10:31:49.815Z,39.78
2023-04-30T10:36:59.845Z,41.11
2023-04-30T10:42:04.342Z,39.99
2023-04-30T10:47:07.943Z,38.71
2023-04-30T10:52:11.436Z,39.17
2023-04-30T10:57:17.715Z,39.99
2023-04-30T11:02:20.648Z,39.08
2023-04-30T11:07:26.084Z,38.73
2023-04-30T11:12:29.332Z,39.80
2023-04-30T11:17:33.015Z,38.60
2023-04-30T11:22:38.570Z,38.04
2023-04-30T11:27:42.647Z,38.78
2023-04-30T11:32:47.419Z,37.41
2023-04-30T11:37:55.844Z,36.44
2023-04-30T11:42:58.467Z,34.50
2023-04-30T11:48:01.154Z,35.88
2023-04-30T11:53:05.480Z,36.74
2023-04-30T11:58:09.685Z,35.27
2023-04-30T12:03:14.889Z,36.13
2023-04-30T12:08:19.423Z,35.01
2023-04-30T12:13:21.997Z,35.22
2023-04-30T12:18:24.675Z,34.34
2023-04-30T12:23:27.240Z,35.76
2023-04-30T12:28:29.862Z,35.33
2023-04-30T12:33:32.604Z,35.55
2023-04-30T12:38:35.784Z,35.24
2023-04-30T12:43:38.668Z,35.72
2023-04-30T12:48:47.379Z,35.33
2023-04-30T12:53:49.969Z,35.52
2023-04-30T12:58:53.760Z,36.08
2023-04-30T13:03:56.580Z,36.58
2023-04-30T13:08:59.252Z,36.20
2023-04-30T13:14:01.970Z,36.35
2023-04-30T13:19:05.160Z,36.23
2023-04-30T13:24:07.734Z,37.00
2023-04-30T13:29:11.174Z,36.73
2023-04-30T13:34:13.803Z,36.36
2023-04-30T13:39:16.397Z,36.47
2023-04-30T13:44:19.180Z,34.55
2023-04-30T13:49:21.738Z,34.21
2023-04-30T13:54:24.309Z,34.03
2023-04-30T13:59:26.920Z,34.79
2023-04-30T14:04:31.032Z,35.04
2023-04-30T14:09:33.621Z,32.36
2023-04-30T14:14:38.668Z,31.41
2023-04-30T14:19:41.904Z,32.66
2023-04-30T14:24:44.509Z,32.22
2023-04-30T14:29:47.122Z,32.75
2023-04-30T14:34:49.670Z,32.57
2023-04-30T14:39:52.533Z,32.19
2023-04-30T14:44:55.458Z,31.70
2023-04-30T14:49:59.063Z,31.72
2023-04-30T14:55:03.213Z,31.15
2023-04-30T15:00:06.838Z,29.98
2023-04-30T15:05:09.882Z,29.29
2023-04-30T15:10:12.893Z,29.06
2023-04-30T15:15:17.380Z,28.60
2023-04-30T15:20:21.288Z,28.05
2023-04-30T15:25:24.169Z,28.38
2023-04-30T15:30:26.839Z,28.41
2023-04-30T15:35:29.755Z,27.87
2023-04-30T15:40:32.462Z,28.09
2023-04-30T15:45:35.240Z,28.07
2023-04-30T15:50:37.799Z,26.93
2023-04-30T15:55:40.424Z,28.05
2023-04-30T16:00:46.466Z,26.68
2023-04-30T16:05:49.698Z,26.63
2023-04-30T16:10:52.937Z,26.06
2023-04-30T16:15:55.625Z,28.50
2023-04-30T16:20:58.393Z,30.94
2023-04-30T16:26:00.965Z,34.13
2023-04-30T16:31:03.890Z,36.93
2023-04-30T16:36:06.959Z,40.51
2023-04-30T16:41:09.694Z,41.35
2023-04-30T16:46:12.393Z,42.80
2023-04-30T16:51:15.223Z,43.18
2023-04-30T16:56:17.957Z,44.08
2023-04-30T17:01:20.929Z,44.76
2023-04-30T17:06:23.705Z,45.64
2023-04-30T17:11:26.764Z,46.27
2023-04-30T17:16:29.388Z,47.24
2023-04-30T17:21:33.172Z,49.06
2023-04-30T17:26:35.943Z,49.19
2023-04-30T17:31:38.628Z,49.28
2023-04-30T17:36:42.006Z,51.02
2023-04-30T17:41:45.695Z,50.87
2023-04-30T17:46:48.410Z,51.14
2023-04-30T17:51:52.060Z,52.57
2023-04-30T17:56:54.719Z,52.92
2023-04-30T18:01:57.391Z,53.60
2023-04-30T18:06:59.962Z,54.19
2023-04-30T18:12:02.662Z,55.09
2023-04-30T18:17:05.474Z,55.69
2023-04-30T18:22:08.030Z,55.23
2023-04-30T18:27:10.662Z,55.66
2023-04-30T18:32:14.083Z,54.84
2023-04-30T18:37:17.807Z,56.09
2023-04-30T18:42:20.620Z,56.92
2023-04-30T18:47:23.733Z,58.36
2023-04-30T18:52:26.380Z,58.44
2023-04-30T18:57:29.007Z,59.73
2023-04-30T19:02:31.778Z,59.73
2023-04-30T19:07:35.251Z,59.43
2023-04-30T19:12:38.628Z,58.95
2023-04-30T19:17:42.176Z,60.46
2023-04-30T19:22:44.932Z,61.56
2023-04-30T19:27:47.618Z,66.35
2023-04-30T19:32:50.276Z,63.15
2023-04-30T19:37:52.981Z,53.49
2023-04-30T19:42:55.632Z,53.37
2023-04-30T19:47:58.254Z,54.36
2023-04-30T19:53:00.817Z,57.17
2023-04-30T19:58:04.898Z,57.90
2023-04-30T20:03:07.905Z,58.32
2023-04-30T20:08:10.601Z,57.98
2023-04-30T20:13:13.634Z,58.72
2023-04-30T20:18:16.251Z,59.23
2023-04-30T20:23:20.307Z,60.03
2023-04-30T20:28:22.981Z,60.68
2023-04-30T20:33:27.296Z,60.25
2023-04-30T20:38:30.021Z,60.26
2023-04-30T20:43:32.538Z,68.45
2023-04-30T20:48:35.087Z,69.36
2023-04-30T20:53:37.671Z,62.87
2023-04-30T20:58:40.380Z,57.49
2023-04-30T21:03:43.014Z,57.71
2023-04-30T21:08:46.077Z,60.01
2023-04-30T21:13:51.258Z,60.75
2023-04-30T21:18:54.028Z,61.64
2023-04-30T21:23:56.623Z,68.80
2023-04-30T21:28:59.489Z,67.51
2023-04-30T21:34:02.135Z,62.27
2023-04-30T21:39:04.679Z,58.79
2023-04-30T21:44:07.318Z,57.81
2023-04-30T21:49:09.897Z,60.38
2023-04-30T21:54:12.494Z,62.09
2023-04-30T21:59:15.033Z,68.85
2023-04-30T22:04:17.863Z,65.59
2023-04-30T22:09:20.493Z,60.44
2023-04-30T22:14:23.084Z,56.38
2023-04-30T22:19:25.658Z,59.24
2023-04-30T22:24:28.313Z,62.38
2023-04-30T22:29:33.062Z,69.19
2023-04-30T22:34:40.927Z,63.02
2023-04-30T22:39:43.536Z,58.00
2023-04-30T22:44:46.416Z,58.22
2023-04-30T22:49:49.315Z,61.19
2023-04-30T22:54:51.895Z,68.10
2023-04-30T22:59:54.785Z,63.12
2023-04-30T23:04:57.655Z,56.29
2023-04-30T23:10:00.902Z,58.41
2023-04-30T23:15:03.937Z,61.48
2023-04-30T23:20:07.914Z,69.15
2023-04-30T23:25:11.549Z,65.06
2023-04-30T23:30:14.074Z,61.16
2023-04-30T23:35:16.773Z,57.22
2023-04-30T23:40:19.989Z,59.75
2023-04-30T23:45:22.544Z,66.33
2023-04-30T23:50:25.941Z,64.94
2023-04-30T23:55:28.731Z,60.80
